sensor_id;sensor_type;location;lat;lon;timestamp;temperature;humidity
47616;DHT22;69146;52.266;7.000;2024-02-23T00:02:16;5.30;99.90
47616;DHT22;69146;52.266;7.000;2024-02-23T00:05:00;5.10;99.90
47616;DHT22;69146;52.266;7.000;2024-02-23T00:07:45;5.10;99.90
47616;DHT22;69146;52.266;7.000;2024-02-23T00:10:29;5.00;99.90
47616;DHT22;69146;52.266;7.000;2024-02-23T00:13:15;4.90;99.90
47616;DHT22;69146;52.266;7.000;2024-02-23T00:15:59;4.90;99.90
47616;DHT22;69146;52.266;7.000;2024-02-23T00:18:43;4.80;99.90
47616;DHT22;69146;52.266;7.000;2024-02-23T00:21:28;4.80;99.90
47616;DHT22;69146;52.266;7.000;2024-02-23T00:24:13;4.80;99.90
47616;DHT22;69146;52.266;7.000;2024-02-23T00:26:57;4.70;99.90
47616;DHT22;69146;52.266;7.000;2024-02-23T00:29:43;4.70;99.90
47616;DHT22;69146;52.266;7.000;2024-02-23T00:32:28;4.70;99.90
47616;DHT22;69146;52.266;7.000;2024-02-23T00:35:12;4.70;99.90
47616;DHT22;69146;52.266;7.000;2024-02-23T00:37:57;4.60;99.90
47616;DHT22;69146;52.266;7.000;2024-02-23T00:40:41;4.60;99.90
47616;DHT22;69146;52.266;7.000;2024-02-23T00:43:25;4.60;99.90
47616;DHT22;69146;52.266;7.000;2024-02-23T00:46:11;4.60;99.90
47616;DHT22;69146;52.266;7.000;2024-02-23T00:48:56;4.50;99.90
47616;DHT22;69146;52.266;7.000;2024-02-23T00:51:40;4.50;99.90
47616;DHT22;69146;52.266;7.000;2024-02-23T00:54:24;4.50;99.90
47616;DHT22;69146;52.266;7.000;2024-02-23T00:57:09;4.50;99.90
47616;DHT22;69146;52.266;7.000;2024-02-23T00:59:57;4.50;99.90
47616;DHT22;69146;52.266;7.000;2024-02-23T01:02:42;4.50;99.90
47616;DHT22;69146;52.266;7.000;2024-02-23T01:05:27;4.50;99.90
47616;DHT22;69146;52.266;7.000;2024-02-23T01:08:11;4.50;99.90
47616;DHT22;69146;52.266;7.000;2024-02-23T01:10:55;4.50;99.90
47616;DHT22;69146;52.266;7.000;2024-02-23T01:13:40;4.50;99.90
47616;DHT22;69146;52.266;7.000;2024-02-23T01:16:24;4.50;99.90
47616;DHT22;69146;52.266;7.000;2024-02-23T01:19:10;4.50;99.90
47616;DHT22;69146;52.266;7.000;2024-02-23T01:21:54;4.50;99.90
47616;DHT22;69146;52.266;7.000;2024-02-23T01:24:43;4.50;99.90
47616;DHT22;69146;52.266;7.000;2024-02-23T01:27:28;4.50;99.90
47616;DHT22;69146;52.266;7.000;2024-02-23T01:30:12;4.50;99.90
47616;DHT22;69146;52.266;7.000;2024-02-23T01:32:57;4.60;99.90
47616;DHT22;69146;52.266;7.000;2024-02-23T01:35:43;4.60;99.90
47616;DHT22;69146;52.266;7.000;2024-02-23T01:38:27;4.60;99.90
47616;DHT22;69146;52.266;7.000;2024-02-23T01:41:15;4.70;99.90
47616;DHT22;69146;52.266;7.000;2024-02-23T01:44:00;4.70;99.90
47616;DHT22;69146;52.266;7.000;2024-02-23T01:46:44;4.70;99.90
47616;DHT22;69146;52.266;7.000;2024-02-23T01:49:29;4.70;99.90
47616;DHT22;69146;52.266;7.000;2024-02-23T01:52:17;4.60;99.90
47616;DHT22;69146;52.266;7.000;2024-02-23T01:55:03;4.50;99.90
47616;DHT22;69146;52.266;7.000;2024-02-23T01:57:47;4.60;99.90
47616;DHT22;69146;52.266;7.000;2024-02-23T02:00:32;4.50;99.90
47616;DHT22;69146;52.266;7.000;2024-02-23T02:03:16;4.50;99.90
47616;DHT22;69146;52.266;7.000;2024-02-23T02:06:01;4.50;99.90
47616;DHT22;69146;52.266;7.000;2024-02-23T02:08:47;4.50;99.90
47616;DHT22;69146;52.266;7.000;2024-02-23T02:11:32;4.50;99.90
47616;DHT22;69146;52.266;7.000;2024-02-23T02:14:16;4.40;99.90
47616;DHT22;69146;52.266;7.000;2024-02-23T02:17:01;4.30;99.90
47616;DHT22;69146;52.266;7.000;2024-02-23T02:19:45;4.20;99.90
47616;DHT22;69146;52.266;7.000;2024-02-23T02:22:31;4.10;99.90
47616;DHT22;69146;52.266;7.000;2024-02-23T02:25:17;4.00;99.90
47616;DHT22;69146;52.266;7.000;2024-02-23T02:28:04;4.00;99.90
47616;DHT22;69146;52.266;7.000;2024-02-23T02:30:49;4.00;99.90
47616;DHT22;69146;52.266;7.000;2024-02-23T02:33:33;3.90;99.90
47616;DHT22;69146;52.266;7.000;2024-02-23T02:36:17;3.90;99.90
47616;DHT22;69146;52.266;7.000;2024-02-23T02:39:02;3.90;99.90
47616;DHT22;69146;52.266;7.000;2024-02-23T02:41:48;3.90;99.90
47616;DHT22;69146;52.266;7.000;2024-02-23T02:44:33;3.90;99.90
47616;DHT22;69146;52.266;7.000;2024-02-23T02:47:17;4.00;99.90
47616;DHT22;69146;52.266;7.000;2024-02-23T02:50:02;4.00;99.90
47616;DHT22;69146;52.266;7.000;2024-02-23T02:52:46;4.10;99.90
47616;DHT22;69146;52.266;7.000;2024-02-23T02:55:30;4.20;99.90
47616;DHT22;69146;52.266;7.000;2024-02-23T02:58:16;4.30;99.90
47616;DHT22;69146;52.266;7.000;2024-02-23T03:01:01;4.40;99.90
47616;DHT22;69146;52.266;7.000;2024-02-23T03:03:45;4.50;99.90
47616;DHT22;69146;52.266;7.000;2024-02-23T03:06:29;4.60;99.90
47616;DHT22;69146;52.266;7.000;2024-02-23T03:09:14;4.70;99.90
47616;DHT22;69146;52.266;7.000;2024-02-23T03:11:59;4.70;99.90
47616;DHT22;69146;52.266;7.000;2024-02-23T03:14:45;4.70;99.90
47616;DHT22;69146;52.266;7.000;2024-02-23T03:17:29;4.70;99.90
47616;DHT22;69146;52.266;7.000;2024-02-23T03:20:15;4.80;99.90
47616;DHT22;69146;52.266;7.000;2024-02-23T03:22:59;4.80;99.90
47616;DHT22;69146;52.266;7.000;2024-02-23T03:25:45;4.80;99.90
47616;DHT22;69146;52.266;7.000;2024-02-23T03:28:29;4.80;99.90
47616;DHT22;69146;52.266;7.000;2024-02-23T03:31:15;4.70;99.90
47616;DHT22;69146;52.266;7.000;2024-02-23T03:34:00;4.80;99.90
47616;DHT22;69146;52.266;7.000;2024-02-23T03:36:44;4.70;99.90
47616;DHT22;69146;52.266;7.000;2024-02-23T03:39:29;4.70;99.90
47616;DHT22;69146;52.266;7.000;2024-02-23T03:42:13;4.70;99.90
47616;DHT22;69146;52.266;7.000;2024-02-23T03:44:58;4.60;99.90
47616;DHT22;69146;52.266;7.000;2024-02-23T03:47:44;4.60;99.90
47616;DHT22;69146;52.266;7.000;2024-02-23T03:50:28;4.50;99.90
47616;DHT22;69146;52.266;7.000;2024-02-23T03:53:13;4.50;99.90
47616;DHT22;69146;52.266;7.000;2024-02-23T03:55:58;4.50;99.90
47616;DHT22;69146;52.266;7.000;2024-02-23T03:58:42;4.40;99.90
47616;DHT22;69146;52.266;7.000;2024-02-23T04:01:27;4.40;99.90
47616;DHT22;69146;52.266;7.000;2024-02-23T04:04:13;4.50;99.90
47616;DHT22;69146;52.266;7.000;2024-02-23T04:06:58;4.50;99.90
47616;DHT22;69146;52.266;7.000;2024-02-23T04:09:42;4.60;99.90
47616;DHT22;69146;52.266;7.000;2024-02-23T04:12:26;4.60;99.90
47616;DHT22;69146;52.266;7.000;2024-02-23T04:15:11;4.60;99.90
47616;DHT22;69146;52.266;7.000;2024-02-23T04:17:55;4.70;99.90
47616;DHT22;69146;52.266;7.000;2024-02-23T04:20:41;4.70;99.90
47616;DHT22;69146;52.266;7.000;2024-02-23T04:23:26;4.70;99.90
47616;DHT22;69146;52.266;7.000;2024-02-23T04:26:11;4.70;99.90
47616;DHT22;69146;52.266;7.000;2024-02-23T04:28:55;4.70;99.90
47616;DHT22;69146;52.266;7.000;2024-02-23T04:31:40;4.80;99.90
47616;DHT22;69146;52.266;7.000;2024-02-23T04:34:24;4.80;99.90
47616;DHT22;69146;52.266;7.000;2024-02-23T04:37:10;4.70;99.90
47616;DHT22;69146;52.266;7.000;2024-02-23T04:39:54;4.70;99.90
47616;DHT22;69146;52.266;7.000;2024-02-23T04:42:39;4.70;99.90
47616;DHT22;69146;52.266;7.000;2024-02-23T04:45:23;4.70;99.90
47616;DHT22;69146;52.266;7.000;2024-02-23T04:48:08;4.70;99.90
47616;DHT22;69146;52.266;7.000;2024-02-23T04:50:52;4.70;99.90
47616;DHT22;69146;52.266;7.000;2024-02-23T04:53:38;4.80;99.90
47616;DHT22;69146;52.266;7.000;2024-02-23T04:56:23;4.80;99.90
47616;DHT22;69146;52.266;7.000;2024-02-23T04:59:07;4.80;99.90
47616;DHT22;69146;52.266;7.000;2024-02-23T05:01:52;4.80;99.90
47616;DHT22;69146;52.266;7.000;2024-02-23T05:04:36;4.80;99.90
47616;DHT22;69146;52.266;7.000;2024-02-23T05:07:21;4.70;99.90
47616;DHT22;69146;52.266;7.000;2024-02-23T05:10:07;4.70;99.90
47616;DHT22;69146;52.266;7.000;2024-02-23T05:12:51;4.70;99.90
47616;DHT22;69146;52.266;7.000;2024-02-23T05:15:35;4.80;99.90
47616;DHT22;69146;52.266;7.000;2024-02-23T05:18:20;4.90;99.90
47616;DHT22;69146;52.266;7.000;2024-02-23T05:21:05;4.80;99.90
47616;DHT22;69146;52.266;7.000;2024-02-23T05:23:49;4.80;99.90
47616;DHT22;69146;52.266;7.000;2024-02-23T05:26:35;4.80;99.90
47616;DHT22;69146;52.266;7.000;2024-02-23T05:29:19;4.80;99.90
47616;DHT22;69146;52.266;7.000;2024-02-23T05:32:06;4.80;99.90
47616;DHT22;69146;52.266;7.000;2024-02-23T05:34:51;4.80;99.90
47616;DHT22;69146;52.266;7.000;2024-02-23T05:37:37;4.80;99.90
47616;DHT22;69146;52.266;7.000;2024-02-23T05:40:21;4.90;99.90
47616;DHT22;69146;52.266;7.000;2024-02-23T05:43:07;4.90;99.90
47616;DHT22;69146;52.266;7.000;2024-02-23T05:45:51;4.90;99.90
47616;DHT22;69146;52.266;7.000;2024-02-23T05:48:36;4.90;99.90
47616;DHT22;69146;52.266;7.000;2024-02-23T05:51:21;5.00;99.90
47616;DHT22;69146;52.266;7.000;2024-02-23T05:54:05;4.90;99.90
47616;DHT22;69146;52.266;7.000;2024-02-23T05:56:49;5.00;99.90
47616;DHT22;69146;52.266;7.000;2024-02-23T05:59:35;4.90;99.90
47616;DHT22;69146;52.266;7.000;2024-02-23T06:02:20;4.90;99.90
47616;DHT22;69146;52.266;7.000;2024-02-23T06:05:05;4.90;99.90
47616;DHT22;69146;52.266;7.000;2024-02-23T06:07:51;4.90;99.90
47616;DHT22;69146;52.266;7.000;2024-02-23T06:10:36;5.00;99.90
47616;DHT22;69146;52.266;7.000;2024-02-23T06:13:22;5.00;99.90
47616;DHT22;69146;52.266;7.000;2024-02-23T06:16:10;5.00;99.90
47616;DHT22;69146;52.266;7.000;2024-02-23T06:18:55;5.00;99.90
47616;DHT22;69146;52.266;7.000;2024-02-23T06:21:39;5.00;99.90
47616;DHT22;69146;52.266;7.000;2024-02-23T06:24:24;5.10;99.90
47616;DHT22;69146;52.266;7.000;2024-02-23T06:27:08;5.10;99.90
47616;DHT22;69146;52.266;7.000;2024-02-23T06:29:52;5.10;99.90
47616;DHT22;69146;52.266;7.000;2024-02-23T06:32:38;5.10;99.90
47616;DHT22;69146;52.266;7.000;2024-02-23T06:35:23;5.20;99.90
47616;DHT22;69146;52.266;7.000;2024-02-23T06:38:07;5.20;99.90
47616;DHT22;69146;52.266;7.000;2024-02-23T06:40:52;5.20;99.90
47616;DHT22;69146;52.266;7.000;2024-02-23T06:43:36;5.20;99.90
47616;DHT22;69146;52.266;7.000;2024-02-23T06:46:21;5.20;99.90
47616;DHT22;69146;52.266;7.000;2024-02-23T06:49:06;5.20;99.90
47616;DHT22;69146;52.266;7.000;2024-02-23T06:51:51;5.20;99.90
47616;DHT22;69146;52.266;7.000;2024-02-23T06:54:35;5.20;99.90
47616;DHT22;69146;52.266;7.000;2024-02-23T06:57:20;5.20;99.90
47616;DHT22;69146;52.266;7.000;2024-02-23T07:00:05;5.20;99.90
47616;DHT22;69146;52.266;7.000;2024-02-23T07:02:51;5.30;99.90
47616;DHT22;69146;52.266;7.000;2024-02-23T07:05:37;5.30;99.90
47616;DHT22;69146;52.266;7.000;2024-02-23T07:08:21;5.30;99.90
47616;DHT22;69146;52.266;7.000;2024-02-23T07:11:06;5.30;99.90
47616;DHT22;69146;52.266;7.000;2024-02-23T07:13:50;5.30;99.90
47616;DHT22;69146;52.266;7.000;2024-02-23T07:16:37;5.30;99.90
47616;DHT22;69146;52.266;7.000;2024-02-23T07:19:22;5.30;99.90
47616;DHT22;69146;52.266;7.000;2024-02-23T07:22:08;5.20;99.90
47616;DHT22;69146;52.266;7.000;2024-02-23T07:24:52;5.20;99.90
47616;DHT22;69146;52.266;7.000;2024-02-23T07:27:37;5.30;99.90
47616;DHT22;69146;52.266;7.000;2024-02-23T07:30:21;5.30;99.90
47616;DHT22;69146;52.266;7.000;2024-02-23T07:33:05;5.30;99.90
47616;DHT22;69146;52.266;7.000;2024-02-23T07:35:50;5.30;99.90
47616;DHT22;69146;52.266;7.000;2024-02-23T07:38:36;5.30;99.90
47616;DHT22;69146;52.266;7.000;2024-02-23T07:41:20;5.30;99.90
47616;DHT22;69146;52.266;7.000;2024-02-23T07:44:05;5.40;99.90
47616;DHT22;69146;52.266;7.000;2024-02-23T07:46:50;5.40;99.90
47616;DHT22;69146;52.266;7.000;2024-02-23T07:49:36;5.50;99.90
47616;DHT22;69146;52.266;7.000;2024-02-23T07:52:21;5.50;99.90
47616;DHT22;69146;52.266;7.000;2024-02-23T07:55:09;5.60;99.90
47616;DHT22;69146;52.266;7.000;2024-02-23T07:57:54;5.60;99.90
47616;DHT22;69146;52.266;7.000;2024-02-23T08:00:45;5.70;99.90
47616;DHT22;69146;52.266;7.000;2024-02-23T08:03:30;5.70;99.90
47616;DHT22;69146;52.266;7.000;2024-02-23T08:06:15;5.90;99.90
47616;DHT22;69146;52.266;7.000;2024-02-23T08:09:00;5.90;99.90
47616;DHT22;69146;52.266;7.000;2024-02-23T08:11:45;6.00;99.90
47616;DHT22;69146;52.266;7.000;2024-02-23T08:14:30;6.10;99.90
47616;DHT22;69146;52.266;7.000;2024-02-23T08:17:15;6.10;99.90
47616;DHT22;69146;52.266;7.000;2024-02-23T08:20:00;6.20;99.90
47616;DHT22;69146;52.266;7.000;2024-02-23T08:22:45;6.30;99.90
47616;DHT22;69146;52.266;7.000;2024-02-23T08:25:29;6.20;99.90
47616;DHT22;69146;52.266;7.000;2024-02-23T08:28:15;6.30;99.90
47616;DHT22;69146;52.266;7.000;2024-02-23T08:30:59;6.50;99.90
47616;DHT22;69146;52.266;7.000;2024-02-23T08:33:44;6.50;99.90
47616;DHT22;69146;52.266;7.000;2024-02-23T08:36:28;6.50;99.90
47616;DHT22;69146;52.266;7.000;2024-02-23T08:39:13;6.30;99.90
47616;DHT22;69146;52.266;7.000;2024-02-23T08:41:57;6.30;99.90
47616;DHT22;69146;52.266;7.000;2024-02-23T08:44:43;6.30;99.90
47616;DHT22;69146;52.266;7.000;2024-02-23T08:47:27;6.40;99.90
47616;DHT22;69146;52.266;7.000;2024-02-23T08:50:16;6.50;99.90
47616;DHT22;69146;52.266;7.000;2024-02-23T08:53:00;6.50;99.90
47616;DHT22;69146;52.266;7.000;2024-02-23T08:55:45;6.50;99.90
47616;DHT22;69146;52.266;7.000;2024-02-23T08:58:29;6.60;99.90
47616;DHT22;69146;52.266;7.000;2024-02-23T09:01:15;6.60;99.90
47616;DHT22;69146;52.266;7.000;2024-02-23T09:03:59;6.60;99.90
47616;DHT22;69146;52.266;7.000;2024-02-23T09:06:44;6.60;99.90
47616;DHT22;69146;52.266;7.000;2024-02-23T09:09:28;6.60;99.90
47616;DHT22;69146;52.266;7.000;2024-02-23T09:12:12;6.70;99.90
47616;DHT22;69146;52.266;7.000;2024-02-23T09:14:58;6.70;99.90
47616;DHT22;69146;52.266;7.000;2024-02-23T09:17:44;6.70;99.90
47616;DHT22;69146;52.266;7.000;2024-02-23T09:20:28;6.70;99.90
47616;DHT22;69146;52.266;7.000;2024-02-23T09:23:13;6.70;99.90
47616;DHT22;69146;52.266;7.000;2024-02-23T09:25:57;6.80;99.90
47616;DHT22;69146;52.266;7.000;2024-02-23T09:28:42;6.80;99.90
47616;DHT22;69146;52.266;7.000;2024-02-23T09:31:26;6.80;99.90
47616;DHT22;69146;52.266;7.000;2024-02-23T09:34:14;6.80;99.90
47616;DHT22;69146;52.266;7.000;2024-02-23T09:36:58;6.80;99.90
47616;DHT22;69146;52.266;7.000;2024-02-23T09:39:43;6.70;99.90
47616;DHT22;69146;52.266;7.000;2024-02-23T09:42:28;6.70;99.90
47616;DHT22;69146;52.266;7.000;2024-02-23T09:45:12;6.70;99.90
47616;DHT22;69146;52.266;7.000;2024-02-23T09:47:57;6.80;99.90
47616;DHT22;69146;52.266;7.000;2024-02-23T09:50:43;6.80;99.90
47616;DHT22;69146;52.266;7.000;2024-02-23T09:53:28;6.90;99.90
47616;DHT22;69146;52.266;7.000;2024-02-23T09:56:13;7.10;99.90
47616;DHT22;69146;52.266;7.000;2024-02-23T09:59:02;7.20;99.90
47616;DHT22;69146;52.266;7.000;2024-02-23T10:01:46;7.30;99.90
47616;DHT22;69146;52.266;7.000;2024-02-23T10:04:31;7.30;99.90
47616;DHT22;69146;52.266;7.000;2024-02-23T10:07:17;7.30;99.90
47616;DHT22;69146;52.266;7.000;2024-02-23T10:10:01;7.30;99.90
47616;DHT22;69146;52.266;7.000;2024-02-23T10:12:45;7.20;99.90
47616;DHT22;69146;52.266;7.000;2024-02-23T10:15:30;7.20;99.90
47616;DHT22;69146;52.266;7.000;2024-02-23T10:18:17;7.10;99.90
47616;DHT22;69146;52.266;7.000;2024-02-23T10:21:02;7.10;99.90
47616;DHT22;69146;52.266;7.000;2024-02-23T10:23:47;7.10;99.90
47616;DHT22;69146;52.266;7.000;2024-02-23T10:26:34;7.10;99.90
47616;DHT22;69146;52.266;7.000;2024-02-23T10:29:19;7.10;99.90
47616;DHT22;69146;52.266;7.000;2024-02-23T10:32:04;7.10;99.90
47616;DHT22;69146;52.266;7.000;2024-02-23T10:34:50;7.10;99.90
47616;DHT22;69146;52.266;7.000;2024-02-23T10:37:36;7.20;99.90
47616;DHT22;69146;52.266;7.000;2024-02-23T10:40:22;7.10;99.90
47616;DHT22;69146;52.266;7.000;2024-02-23T10:43:11;7.10;99.90
47616;DHT22;69146;52.266;7.000;2024-02-23T10:45:56;7.10;99.90
47616;DHT22;69146;52.266;7.000;2024-02-23T10:48:42;7.10;99.90
47616;DHT22;69146;52.266;7.000;2024-02-23T10:51:27;7.10;99.90
47616;DHT22;69146;52.266;7.000;2024-02-23T10:54:12;7.20;99.90
47616;DHT22;69146;52.266;7.000;2024-02-23T10:56:58;7.10;99.90
47616;DHT22;69146;52.266;7.000;2024-02-23T10:59:44;7.20;99.90
47616;DHT22;69146;52.266;7.000;2024-02-23T11:02:29;7.10;99.90
47616;DHT22;69146;52.266;7.000;2024-02-23T11:05:14;7.10;99.90
47616;DHT22;69146;52.266;7.000;2024-02-23T11:08:00;7.20;99.90
47616;DHT22;69146;52.266;7.000;2024-02-23T11:10:48;7.20;99.90
47616;DHT22;69146;52.266;7.000;2024-02-23T11:13:35;7.20;99.90
47616;DHT22;69146;52.266;7.000;2024-02-23T11:16:23;7.20;99.90
47616;DHT22;69146;52.266;7.000;2024-02-23T11:19:09;7.30;99.90
47616;DHT22;69146;52.266;7.000;2024-02-23T11:21:55;7.20;99.90
47616;DHT22;69146;52.266;7.000;2024-02-23T11:24:43;7.10;99.90
47616;DHT22;69146;52.266;7.000;2024-02-23T11:27:30;7.20;99.90
47616;DHT22;69146;52.266;7.000;2024-02-23T11:30:16;7.10;99.90
47616;DHT22;69146;52.266;7.000;2024-02-23T11:33:01;7.10;99.90
47616;DHT22;69146;52.266;7.000;2024-02-23T11:35:46;7.10;99.90
47616;DHT22;69146;52.266;7.000;2024-02-23T11:38:33;7.10;99.90
47616;DHT22;69146;52.266;7.000;2024-02-23T11:41:18;7.00;99.90
47616;DHT22;69146;52.266;7.000;2024-02-23T11:44:03;6.90;99.90
47616;DHT22;69146;52.266;7.000;2024-02-23T11:46:49;6.80;99.90
47616;DHT22;69146;52.266;7.000;2024-02-23T11:49:33;6.90;99.90
47616;DHT22;69146;52.266;7.000;2024-02-23T11:52:18;6.80;99.90
47616;DHT22;69146;52.266;7.000;2024-02-23T11:55:02;6.70;99.90
47616;DHT22;69146;52.266;7.000;2024-02-23T11:57:47;6.60;99.90
47616;DHT22;69146;52.266;7.000;2024-02-23T12:00:32;6.50;99.90
47616;DHT22;69146;52.266;7.000;2024-02-23T12:03:18;6.40;99.90
47616;DHT22;69146;52.266;7.000;2024-02-23T12:06:03;6.30;99.90
47616;DHT22;69146;52.266;7.000;2024-02-23T12:08:47;6.30;99.90
47616;DHT22;69146;52.266;7.000;2024-02-23T12:11:32;6.20;99.90
47616;DHT22;69146;52.266;7.000;2024-02-23T12:14:17;6.30;99.90
47616;DHT22;69146;52.266;7.000;2024-02-23T12:17:01;6.30;99.90
47616;DHT22;69146;52.266;7.000;2024-02-23T12:19:49;6.30;99.90
47616;DHT22;69146;52.266;7.000;2024-02-23T12:22:33;6.30;99.90
47616;DHT22;69146;52.266;7.000;2024-02-23T12:25:18;6.30;99.90
47616;DHT22;69146;52.266;7.000;2024-02-23T12:28:03;6.30;99.90
47616;DHT22;69146;52.266;7.000;2024-02-23T12:30:57;6.30;99.90
47616;DHT22;69146;52.266;7.000;2024-02-23T12:33:41;6.30;99.90
47616;DHT22;69146;52.266;7.000;2024-02-23T12:36:29;6.30;99.90
47616;DHT22;69146;52.266;7.000;2024-02-23T12:39:18;6.30;99.90
47616;DHT22;69146;52.266;7.000;2024-02-23T12:42:03;6.40;99.90
47616;DHT22;69146;52.266;7.000;2024-02-23T12:44:48;6.50;99.90
47616;DHT22;69146;52.266;7.000;2024-02-23T12:47:32;6.50;99.90
47616;DHT22;69146;52.266;7.000;2024-02-23T12:50:17;6.60;99.90
47616;DHT22;69146;52.266;7.000;2024-02-23T12:53:03;6.70;99.90
47616;DHT22;69146;52.266;7.000;2024-02-23T12:55:48;6.70;99.90
47616;DHT22;69146;52.266;7.000;2024-02-23T12:58:33;6.70;99.90
47616;DHT22;69146;52.266;7.000;2024-02-23T13:01:17;6.90;99.90
47616;DHT22;69146;52.266;7.000;2024-02-23T13:04:01;6.90;99.90
47616;DHT22;69146;52.266;7.000;2024-02-23T13:06:46;6.90;99.90
47616;DHT22;69146;52.266;7.000;2024-02-23T13:09:32;7.00;99.90
47616;DHT22;69146;52.266;7.000;2024-02-23T13:12:16;6.90;99.90
47616;DHT22;69146;52.266;7.000;2024-02-23T13:15:01;6.80;99.90
47616;DHT22;69146;52.266;7.000;2024-02-23T13:17:45;6.80;99.90
47616;DHT22;69146;52.266;7.000;2024-02-23T13:20:32;6.80;99.90
47616;DHT22;69146;52.266;7.000;2024-02-23T13:23:16;6.90;99.90
47616;DHT22;69146;52.266;7.000;2024-02-23T13:26:02;6.90;99.90
47616;DHT22;69146;52.266;7.000;2024-02-23T13:28:47;6.90;99.90
47616;DHT22;69146;52.266;7.000;2024-02-23T13:31:32;6.90;99.90
47616;DHT22;69146;52.266;7.000;2024-02-23T13:34:16;6.90;99.90
47616;DHT22;69146;52.266;7.000;2024-02-23T13:37:01;6.90;99.90
47616;DHT22;69146;52.266;7.000;2024-02-23T13:39:46;6.90;99.90
47616;DHT22;69146;52.266;7.000;2024-02-23T13:42:32;7.00;99.90
47616;DHT22;69146;52.266;7.000;2024-02-23T13:45:16;7.00;99.90
47616;DHT22;69146;52.266;7.000;2024-02-23T13:48:02;7.10;99.90
47616;DHT22;69146;52.266;7.000;2024-02-23T13:50:47;7.10;99.90
47616;DHT22;69146;52.266;7.000;2024-02-23T13:53:31;7.20;99.90
47616;DHT22;69146;52.266;7.000;2024-02-23T13:56:17;7.20;99.90
47616;DHT22;69146;52.266;7.000;2024-02-23T13:59:02;7.10;99.90
47616;DHT22;69146;52.266;7.000;2024-02-23T14:01:48;7.10;99.90
47616;DHT22;69146;52.266;7.000;2024-02-23T14:04:32;7.00;99.90
47616;DHT22;69146;52.266;7.000;2024-02-23T14:07:16;6.90;99.90
47616;DHT22;69146;52.266;7.000;2024-02-23T14:10:03;6.90;99.90
47616;DHT22;69146;52.266;7.000;2024-02-23T14:12:47;6.90;99.90
47616;DHT22;69146;52.266;7.000;2024-02-23T14:15:36;6.90;99.90
47616;DHT22;69146;52.266;7.000;2024-02-23T14:18:20;6.80;99.90
47616;DHT22;69146;52.266;7.000;2024-02-23T14:21:05;6.80;99.90
47616;DHT22;69146;52.266;7.000;2024-02-23T14:23:49;6.90;99.90
47616;DHT22;69146;52.266;7.000;2024-02-23T14:26:33;6.90;99.90
47616;DHT22;69146;52.266;7.000;2024-02-23T14:29:18;6.90;99.90
47616;DHT22;69146;52.266;7.000;2024-02-23T14:32:04;6.90;99.90
47616;DHT22;69146;52.266;7.000;2024-02-23T14:34:48;6.80;99.90
47616;DHT22;69146;52.266;7.000;2024-02-23T14:37:34;6.80;99.90
47616;DHT22;69146;52.266;7.000;2024-02-23T14:40:18;6.80;99.90
47616;DHT22;69146;52.266;7.000;2024-02-23T14:43:04;6.80;99.90
47616;DHT22;69146;52.266;7.000;2024-02-23T14:45:49;6.80;99.90
47616;DHT22;69146;52.266;7.000;2024-02-23T14:48:37;6.80;99.90
47616;DHT22;69146;52.266;7.000;2024-02-23T14:51:21;6.70;99.90
47616;DHT22;69146;52.266;7.000;2024-02-23T14:54:06;6.80;99.90
47616;DHT22;69146;52.266;7.000;2024-02-23T14:56:50;6.80;99.90
47616;DHT22;69146;52.266;7.000;2024-02-23T14:59:34;6.70;99.90
47616;DHT22;69146;52.266;7.000;2024-02-23T15:02:21;6.70;99.90
47616;DHT22;69146;52.266;7.000;2024-02-23T15:05:07;6.80;99.90
47616;DHT22;69146;52.266;7.000;2024-02-23T15:07:52;6.80;99.90
47616;DHT22;69146;52.266;7.000;2024-02-23T15:10:36;6.90;99.90
47616;DHT22;69146;52.266;7.000;2024-02-23T15:13:21;6.90;99.90
47616;DHT22;69146;52.266;7.000;2024-02-23T15:16:05;7.00;99.90
47616;DHT22;69146;52.266;7.000;2024-02-23T15:18:50;7.00;99.90
47616;DHT22;69146;52.266;7.000;2024-02-23T15:21:35;7.00;99.90
47616;DHT22;69146;52.266;7.000;2024-02-23T15:24:24;7.00;99.90
47616;DHT22;69146;52.266;7.000;2024-02-23T15:27:08;7.10;99.90
47616;DHT22;69146;52.266;7.000;2024-02-23T15:29:53;7.00;99.90
47616;DHT22;69146;52.266;7.000;2024-02-23T15:32:37;7.10;99.90
47616;DHT22;69146;52.266;7.000;2024-02-23T15:35:22;7.10;99.90
47616;DHT22;69146;52.266;7.000;2024-02-23T15:38:12;7.00;99.90
47616;DHT22;69146;52.266;7.000;2024-02-23T15:40:56;6.90;99.90
47616;DHT22;69146;52.266;7.000;2024-02-23T15:43:40;6.80;99.90
47616;DHT22;69146;52.266;7.000;2024-02-23T15:46:25;6.80;99.90
47616;DHT22;69146;52.266;7.000;2024-02-23T15:49:09;6.90;99.90
47616;DHT22;69146;52.266;7.000;2024-02-23T15:51:54;7.00;99.90
47616;DHT22;69146;52.266;7.000;2024-02-23T15:54:39;7.00;99.90
47616;DHT22;69146;52.266;7.000;2024-02-23T15:57:24;7.00;99.90
47616;DHT22;69146;52.266;7.000;2024-02-23T16:00:08;7.00;99.90
47616;DHT22;69146;52.266;7.000;2024-02-23T16:02:54;7.10;99.90
47616;DHT22;69146;52.266;7.000;2024-02-23T16:05:39;7.10;99.90
47616;DHT22;69146;52.266;7.000;2024-02-23T16:11:25;7.10;99.90
47616;DHT22;69146;52.266;7.000;2024-02-23T16:14:09;7.10;99.90
47616;DHT22;69146;52.266;7.000;2024-02-23T16:16:53;7.20;99.90
47616;DHT22;69146;52.266;7.000;2024-02-23T16:19:39;7.10;99.90
47616;DHT22;69146;52.266;7.000;2024-02-23T16:22:24;7.20;99.90
47616;DHT22;69146;52.266;7.000;2024-02-23T16:25:09;7.20;99.90
47616;DHT22;69146;52.266;7.000;2024-02-23T16:27:57;7.20;99.90
47616;DHT22;69146;52.266;7.000;2024-02-23T16:30:42;7.10;99.90
47616;DHT22;69146;52.266;7.000;2024-02-23T16:33:26;7.10;99.90
47616;DHT22;69146;52.266;7.000;2024-02-23T16:36:10;7.00;99.90
47616;DHT22;69146;52.266;7.000;2024-02-23T16:38:55;6.90;99.90
47616;DHT22;69146;52.266;7.000;2024-02-23T16:41:39;6.80;99.90
47616;DHT22;69146;52.266;7.000;2024-02-23T16:44:25;6.70;99.90
47616;DHT22;69146;52.266;7.000;2024-02-23T16:47:09;6.60;99.90
47616;DHT22;69146;52.266;7.000;2024-02-23T16:49:54;6.60;99.90
47616;DHT22;69146;52.266;7.000;2024-02-23T16:52:39;6.60;99.90
47616;DHT22;69146;52.266;7.000;2024-02-23T16:55:24;6.50;99.90
47616;DHT22;69146;52.266;7.000;2024-02-23T16:58:08;6.40;99.90
47616;DHT22;69146;52.266;7.000;2024-02-23T17:00:54;6.30;99.90
47616;DHT22;69146;52.266;7.000;2024-02-23T17:03:41;6.20;99.90
47616;DHT22;69146;52.266;7.000;2024-02-23T17:06:27;6.10;99.90
47616;DHT22;69146;52.266;7.000;2024-02-23T17:09:11;6.10;99.90
47616;DHT22;69146;52.266;7.000;2024-02-23T17:11:55;6.20;99.90
47616;DHT22;69146;52.266;7.000;2024-02-23T17:14:40;6.20;99.90
47616;DHT22;69146;52.266;7.000;2024-02-23T17:17:26;6.20;99.90
47616;DHT22;69146;52.266;7.000;2024-02-23T17:20:10;6.30;99.90
47616;DHT22;69146;52.266;7.000;2024-02-23T17:22:55;6.40;99.90
47616;DHT22;69146;52.266;7.000;2024-02-23T17:25:39;6.50;99.90
47616;DHT22;69146;52.266;7.000;2024-02-23T17:28:24;6.50;99.90
47616;DHT22;69146;52.266;7.000;2024-02-23T17:31:09;6.50;99.90
47616;DHT22;69146;52.266;7.000;2024-02-23T17:33:54;6.50;99.90
47616;DHT22;69146;52.266;7.000;2024-02-23T17:36:39;6.40;99.90
47616;DHT22;69146;52.266;7.000;2024-02-23T17:39:27;6.40;99.90
47616;DHT22;69146;52.266;7.000;2024-02-23T17:42:12;6.30;99.90